sensor_id;sensor_type;location;lat;lon;timestamp;P1;durP1;ratioP1;P2;durP2;ratioP2
57899;SDS011;60605;53.716;19.940;2023-02-28T00:03:29;52.70;;;25.40;;
57899;SDS011;60605;53.716;19.940;2023-02-28T00:08:32;49.10;;;24.10;;
57899;SDS011;60605;53.716;19.940;2023-02-28T00:13:37;68.20;;;28.50;;
57899;SDS011;60605;53.716;19.940;2023-02-28T00:18:42;101.30;;;35.70;;
57899;SDS011;60605;53.716;19.940;2023-02-28T00:23:45;94.10;;;35.40;;
57899;SDS011;60605;53.716;19.940;2023-02-28T00:28:51;80.20;;;30.20;;
57899;SDS011;60605;53.716;19.940;2023-02-28T00:33:55;75.30;;;29.80;;
57899;SDS011;60605;53.716;19.940;2023-02-28T00:44:01;92.30;;;34.60;;
57899;SDS011;60605;53.716;19.940;2023-02-28T00:54:07;123.80;;;44.30;;
57899;SDS011;60605;53.716;19.940;2023-02-28T01:04:14;98.00;;;37.80;;
57899;SDS011;60605;53.716;19.940;2023-02-28T01:09:18;89.10;;;32.60;;
57899;SDS011;60605;53.716;19.940;2023-02-28T01:14:21;107.50;;;39.00;;
57899;SDS011;60605;53.716;19.940;2023-02-28T01:19:25;83.90;;;33.20;;
57899;SDS011;60605;53.716;19.940;2023-02-28T01:29:31;69.30;;;29.20;;
57899;SDS011;60605;53.716;19.940;2023-02-28T01:34:34;68.70;;;26.20;;
57899;SDS011;60605;53.716;19.940;2023-02-28T01:39:38;64.40;;;27.20;;
57899;SDS011;60605;53.716;19.940;2023-02-28T01:44:58;67.00;;;27.20;;
57899;SDS011;60605;53.716;19.940;2023-02-28T01:50:02;56.90;;;22.40;;
57899;SDS011;60605;53.716;19.940;2023-02-28T01:55:09;53.20;;;21.80;;
57899;SDS011;60605;53.716;19.940;2023-02-28T02:00:16;46.60;;;19.40;;
57899;SDS011;60605;53.716;19.940;2023-02-28T02:05:22;43.00;;;18.50;;
57899;SDS011;60605;53.716;19.940;2023-02-28T02:10:39;51.30;;;21.90;;
57899;SDS011;60605;53.716;19.940;2023-02-28T02:37:42;24.60;;;13.00;;
57899;SDS011;60605;53.716;19.940;2023-02-28T02:48:17;28.10;;;16.80;;
57899;SDS011;60605;53.716;19.940;2023-02-28T02:53:25;36.90;;;22.40;;
57899;SDS011;60605;53.716;19.940;2023-02-28T02:58:35;24.70;;;14.20;;
57899;SDS011;60605;53.716;19.940;2023-02-28T03:03:45;29.40;;;14.20;;
57899;SDS011;60605;53.716;19.940;2023-02-28T03:08:48;25.50;;;15.40;;
57899;SDS011;60605;53.716;19.940;2023-02-28T03:19:28;64.80;;;38.30;;
57899;SDS011;60605;53.716;19.940;2023-02-28T03:24:37;48.30;;;25.40;;
57899;SDS011;60605;53.716;19.940;2023-02-28T03:29:46;64.70;;;39.30;;
57899;SDS011;60605;53.716;19.940;2023-02-28T03:40:19;52.00;;;27.20;;
57899;SDS011;60605;53.716;19.940;2023-02-28T03:45:28;51.20;;;29.00;;
57899;SDS011;60605;53.716;19.940;2023-02-28T03:50:39;58.90;;;29.80;;
57899;SDS011;60605;53.716;19.940;2023-02-28T03:55:48;57.60;;;28.90;;
57899;SDS011;60605;53.716;19.940;2023-02-28T04:06:18;75.10;;;30.30;;
57899;SDS011;60605;53.716;19.940;2023-02-28T04:16:41;58.50;;;27.40;;
57899;SDS011;60605;53.716;19.940;2023-02-28T04:21:46;67.10;;;31.20;;
57899;SDS011;60605;53.716;19.940;2023-02-28T04:26:52;59.30;;;27.80;;
57899;SDS011;60605;53.716;19.940;2023-02-28T04:31:58;70.50;;;32.70;;
57899;SDS011;60605;53.716;19.940;2023-02-28T04:37:03;54.90;;;27.80;;
57899;SDS011;60605;53.716;19.940;2023-02-28T04:42:15;52.80;;;26.40;;
57899;SDS011;60605;53.716;19.940;2023-02-28T04:47:18;46.60;;;23.60;;
57899;SDS011;60605;53.716;19.940;2023-02-28T04:52:21;52.70;;;25.30;;
57899;SDS011;60605;53.716;19.940;2023-02-28T04:57:24;66.40;;;28.50;;
57899;SDS011;60605;53.716;19.940;2023-02-28T05:02:28;55.70;;;27.60;;
57899;SDS011;60605;53.716;19.940;2023-02-28T05:07:31;45.30;;;26.80;;
57899;SDS011;60605;53.716;19.940;2023-02-28T05:12:34;41.50;;;24.30;;
57899;SDS011;60605;53.716;19.940;2023-02-28T05:17:37;57.30;;;29.30;;
57899;SDS011;60605;53.716;19.940;2023-02-28T05:22:41;52.40;;;25.40;;
57899;SDS011;60605;53.716;19.940;2023-02-28T05:27:44;67.20;;;31.10;;
57899;SDS011;60605;53.716;19.940;2023-02-28T05:32:49;52.20;;;27.10;;
57899;SDS011;60605;53.716;19.940;2023-02-28T05:37:54;48.50;;;24.90;;
57899;SDS011;60605;53.716;19.940;2023-02-28T05:42:57;68.90;;;31.50;;
57899;SDS011;60605;53.716;19.940;2023-02-28T05:48:00;61.70;;;28.80;;
57899;SDS011;60605;53.716;19.940;2023-02-28T05:53:03;70.60;;;34.50;;
57899;SDS011;60605;53.716;19.940;2023-02-28T05:58:07;58.80;;;27.80;;
57899;SDS011;60605;53.716;19.940;2023-02-28T06:03:10;73.00;;;29.20;;
57899;SDS011;60605;53.716;19.940;2023-02-28T06:08:13;94.10;;;49.20;;
57899;SDS011;60605;53.716;19.940;2023-02-28T06:18:19;57.20;;;30.70;;
57899;SDS011;60605;53.716;19.940;2023-02-28T06:23:22;54.20;;;29.20;;
57899;SDS011;60605;53.716;19.940;2023-02-28T06:28:25;48.40;;;30.80;;
57899;SDS011;60605;53.716;19.940;2023-02-28T06:33:29;48.90;;;30.50;;
57899;SDS011;60605;53.716;19.940;2023-02-28T06:43:38;68.70;;;40.40;;
57899;SDS011;60605;53.716;19.940;2023-02-28T06:48:44;60.90;;;38.90;;
57899;SDS011;60605;53.716;19.940;2023-02-28T06:53:48;65.80;;;42.60;;
57899;SDS011;60605;53.716;19.940;2023-02-28T07:03:55;38.00;;;26.90;;
57899;SDS011;60605;53.716;19.940;2023-02-28T07:08:58;41.30;;;29.90;;
57899;SDS011;60605;53.716;19.940;2023-02-28T07:14:02;31.80;;;24.80;;
57899;SDS011;60605;53.716;19.940;2023-02-28T07:19:06;19.10;;;13.50;;
57899;SDS011;60605;53.716;19.940;2023-02-28T07:24:09;17.10;;;13.10;;
57899;SDS011;60605;53.716;19.940;2023-02-28T07:29:13;16.60;;;13.90;;
57899;SDS011;60605;53.716;19.940;2023-02-28T07:34:17;19.70;;;15.00;;
57899;SDS011;60605;53.716;19.940;2023-02-28T07:39:20;17.90;;;14.80;;
57899;SDS011;60605;53.716;19.940;2023-02-28T07:44:24;17.70;;;14.10;;
57899;SDS011;60605;53.716;19.940;2023-02-28T07:49:30;16.20;;;13.10;;
57899;SDS011;60605;53.716;19.940;2023-02-28T07:54:34;17.40;;;13.00;;
57899;SDS011;60605;53.716;19.940;2023-02-28T07:59:38;15.30;;;13.60;;
57899;SDS011;60605;53.716;19.940;2023-02-28T08:04:42;15.20;;;13.60;;
57899;SDS011;60605;53.716;19.940;2023-02-28T08:09:45;17.60;;;14.50;;
57899;SDS011;60605;53.716;19.940;2023-02-28T08:14:49;18.30;;;15.20;;
57899;SDS011;60605;53.716;19.940;2023-02-28T08:19:53;16.60;;;14.70;;
57899;SDS011;60605;53.716;19.940;2023-02-28T08:24:56;21.10;;;14.60;;
57899;SDS011;60605;53.716;19.940;2023-02-28T08:29:59;15.50;;;13.80;;
57899;SDS011;60605;53.716;19.940;2023-02-28T08:35:03;14.70;;;13.10;;
57899;SDS011;60605;53.716;19.940;2023-02-28T08:40:08;15.60;;;12.60;;
57899;SDS011;60605;53.716;19.940;2023-02-28T08:45:13;13.00;;;11.60;;
57899;SDS011;60605;53.716;19.940;2023-02-28T08:50:17;11.80;;;9.40;;
57899;SDS011;60605;53.716;19.940;2023-02-28T08:55:21;10.90;;;9.00;;
57899;SDS011;60605;53.716;19.940;2023-02-28T09:00:26;8.20;;;7.40;;
57899;SDS011;60605;53.716;19.940;2023-02-28T09:05:29;6.10;;;5.10;;
57899;SDS011;60605;53.716;19.940;2023-02-28T09:10:34;5.70;;;4.80;;
57899;SDS011;60605;53.716;19.940;2023-02-28T09:15:38;5.70;;;4.80;;
57899;SDS011;60605;53.716;19.940;2023-02-28T09:20:41;5.70;;;3.90;;
57899;SDS011;60605;53.716;19.940;2023-02-28T09:25:47;4.10;;;3.60;;
57899;SDS011;60605;53.716;19.940;2023-02-28T09:30:52;3.80;;;3.10;;
57899;SDS011;60605;53.716;19.940;2023-02-28T09:35:58;5.60;;;4.10;;
57899;SDS011;60605;53.716;19.940;2023-02-28T09:41:13;4.20;;;3.40;;
57899;SDS011;60605;53.716;19.940;2023-02-28T09:46:43;3.90;;;3.30;;
57899;SDS011;60605;53.716;19.940;2023-02-28T09:51:51;5.70;;;3.60;;
57899;SDS011;60605;53.716;19.940;2023-02-28T10:07:17;3.30;;;3.00;;
57899;SDS011;60605;53.716;19.940;2023-02-28T10:12:24;4.00;;;3.10;;
57899;SDS011;60605;53.716;19.940;2023-02-28T10:17:36;3.10;;;2.80;;
57899;SDS011;60605;53.716;19.940;2023-02-28T10:23:13;3.50;;;3.20;;
57899;SDS011;60605;53.716;19.940;2023-02-28T10:28:24;3.50;;;3.20;;
57899;SDS011;60605;53.716;19.940;2023-02-28T10:33:33;5.10;;;3.20;;
57899;SDS011;60605;53.716;19.940;2023-02-28T10:38:38;4.00;;;3.10;;
57899;SDS011;60605;53.716;19.940;2023-02-28T10:43:42;3.90;;;3.00;;
57899;SDS011;60605;53.716;19.940;2023-02-28T10:48:50;4.50;;;3.20;;
57899;SDS011;60605;53.716;19.940;2023-02-28T10:54:03;5.40;;;2.90;;
57899;SDS011;60605;53.716;19.940;2023-02-28T11:09:33;5.30;;;3.30;;
57899;SDS011;60605;53.716;19.940;2023-02-28T11:14:41;4.30;;;2.90;;
57899;SDS011;60605;53.716;19.940;2023-02-28T11:19:52;5.80;;;3.20;;
57899;SDS011;60605;53.716;19.940;2023-02-28T11:25:02;4.20;;;2.90;;
57899;SDS011;60605;53.716;19.940;2023-02-28T11:35:36;4.30;;;3.20;;
57899;SDS011;60605;53.716;19.940;2023-02-28T11:46:02;5.00;;;3.40;;
57899;SDS011;60605;53.716;19.940;2023-02-28T11:56:36;6.90;;;2.80;;
57899;SDS011;60605;53.716;19.940;2023-02-28T12:17:43;4.70;;;3.10;;
57899;SDS011;60605;53.716;19.940;2023-02-28T12:28:13;4.30;;;3.80;;
57899;SDS011;60605;53.716;19.940;2023-02-28T12:33:20;10.90;;;7.00;;
57899;SDS011;60605;53.716;19.940;2023-02-28T12:38:27;7.10;;;3.50;;
57899;SDS011;60605;53.716;19.940;2023-02-28T12:43:36;4.10;;;3.10;;
57899;SDS011;60605;53.716;19.940;2023-02-28T12:49:08;4.80;;;2.90;;
57899;SDS011;60605;53.716;19.940;2023-02-28T12:54:33;4.40;;;3.10;;
57899;SDS011;60605;53.716;19.940;2023-02-28T12:59:52;6.80;;;2.90;;
57899;SDS011;60605;53.716;19.940;2023-02-28T13:10:19;6.70;;;3.70;;
57899;SDS011;60605;53.716;19.940;2023-02-28T13:15:26;3.60;;;3.20;;
57899;SDS011;60605;53.716;19.940;2023-02-28T13:20:35;7.20;;;3.80;;
57899;SDS011;60605;53.716;19.940;2023-02-28T13:41:37;4.10;;;2.90;;
57899;SDS011;60605;53.716;19.940;2023-02-28T13:57:11;15.60;;;7.00;;
57899;SDS011;60605;53.716;19.940;2023-02-28T14:07:46;8.30;;;4.90;;
57899;SDS011;60605;53.716;19.940;2023-02-28T14:12:57;56.10;;;41.70;;
57899;SDS011;60605;53.716;19.940;2023-02-28T14:18:01;12.30;;;8.90;;
57899;SDS011;60605;53.716;19.940;2023-02-28T14:34:26;8.20;;;5.10;;
57899;SDS011;60605;53.716;19.940;2023-02-28T14:39:50;7.20;;;4.50;;
57899;SDS011;60605;53.716;19.940;2023-02-28T14:44:54;7.50;;;4.40;;
57899;SDS011;60605;53.716;19.940;2023-02-28T14:50:01;8.90;;;5.10;;
57899;SDS011;60605;53.716;19.940;2023-02-28T14:55:15;13.10;;;8.40;;
57899;SDS011;60605;53.716;19.940;2023-02-28T15:00:28;8.20;;;5.50;;
57899;SDS011;60605;53.716;19.940;2023-02-28T15:05:34;5.30;;;3.70;;
57899;SDS011;60605;53.716;19.940;2023-02-28T15:10:39;4.20;;;3.30;;
57899;SDS011;60605;53.716;19.940;2023-02-28T15:21:06;5.20;;;3.90;;
57899;SDS011;60605;53.716;19.940;2023-02-28T15:26:22;31.60;;;18.80;;
57899;SDS011;60605;53.716;19.940;2023-02-28T15:31:31;63.60;;;50.90;;
57899;SDS011;60605;53.716;19.940;2023-02-28T15:36:58;24.50;;;19.20;;
57899;SDS011;60605;53.716;19.940;2023-02-28T15:42:11;43.10;;;30.20;;
57899;SDS011;60605;53.716;19.940;2023-02-28T15:47:22;15.20;;;11.50;;
57899;SDS011;60605;53.716;19.940;2023-02-28T15:52:38;9.50;;;7.10;;
57899;SDS011;60605;53.716;19.940;2023-02-28T15:57:44;9.30;;;6.00;;
57899;SDS011;60605;53.716;19.940;2023-02-28T16:02:49;5.70;;;3.80;;
57899;SDS011;60605;53.716;19.940;2023-02-28T16:07:54;9.50;;;4.70;;
57899;SDS011;60605;53.716;19.940;2023-02-28T16:12:59;5.70;;;3.90;;
57899;SDS011;60605;53.716;19.940;2023-02-28T16:18:07;6.50;;;4.20;;
57899;SDS011;60605;53.716;19.940;2023-02-28T16:23:13;6.90;;;3.70;;
57899;SDS011;60605;53.716;19.940;2023-02-28T16:33:53;10.30;;;4.60;;
57899;SDS011;60605;53.716;19.940;2023-02-28T16:38:59;5.60;;;3.90;;
57899;SDS011;60605;53.716;19.940;2023-02-28T16:44:04;19.40;;;13.70;;
57899;SDS011;60605;53.716;19.940;2023-02-28T16:49:16;21.80;;;14.50;;
57899;SDS011;60605;53.716;19.940;2023-02-28T16:54:20;62.40;;;37.10;;
57899;SDS011;60605;53.716;19.940;2023-02-28T16:59:23;45.50;;;29.30;;
57899;SDS011;60605;53.716;19.940;2023-02-28T17:04:29;15.00;;;8.70;;
57899;SDS011;60605;53.716;19.940;2023-02-28T17:09:33;11.40;;;7.10;;
57899;SDS011;60605;53.716;19.940;2023-02-28T17:14:45;20.00;;;11.10;;
57899;SDS011;60605;53.716;19.940;2023-02-28T17:19:49;84.20;;;33.20;;
57899;SDS011;60605;53.716;19.940;2023-02-28T17:24:53;43.50;;;19.00;;
57899;SDS011;60605;53.716;19.940;2023-02-28T17:30:00;23.60;;;11.70;;
57899;SDS011;60605;53.716;19.940;2023-02-28T17:35:07;29.70;;;13.50;;
57899;SDS011;60605;53.716;19.940;2023-02-28T17:40:13;54.40;;;20.70;;
57899;SDS011;60605;53.716;19.940;2023-02-28T17:45:21;33.00;;;13.10;;
57899;SDS011;60605;53.716;19.940;2023-02-28T17:50:28;22.80;;;11.30;;
57899;SDS011;60605;53.716;19.940;2023-02-28T17:55:35;23.70;;;9.40;;
57899;SDS011;60605;53.716;19.940;2023-02-28T18:00:40;93.50;;;19.10;;
57899;SDS011;60605;53.716;19.940;2023-02-28T18:05:46;106.90;;;28.40;;
57899;SDS011;60605;53.716;19.940;2023-02-28T18:10:51;57.30;;;15.90;;
57899;SDS011;60605;53.716;19.940;2023-02-28T18:15:55;27.10;;;9.60;;
57899;SDS011;60605;53.716;19.940;2023-02-28T18:20:59;29.80;;;11.10;;
57899;SDS011;60605;53.716;19.940;2023-02-28T18:26:07;59.10;;;20.90;;
57899;SDS011;60605;53.716;19.940;2023-02-28T18:31:14;48.00;;;15.80;;
57899;SDS011;60605;53.716;19.940;2023-02-28T18:36:20;34.20;;;12.20;;
57899;SDS011;60605;53.716;19.940;2023-02-28T18:41:26;32.70;;;14.20;;
57899;SDS011;60605;53.716;19.940;2023-02-28T18:46:30;19.50;;;9.80;;
57899;SDS011;60605;53.716;19.940;2023-02-28T18:51:35;26.10;;;10.60;;
57899;SDS011;60605;53.716;19.940;2023-02-28T18:56:41;28.70;;;12.70;;
57899;SDS011;60605;53.716;19.940;2023-02-28T19:01:46;118.70;;;20.60;;
57899;SDS011;60605;53.716;19.940;2023-02-28T19:06:50;115.90;;;25.60;;
57899;SDS011;60605;53.716;19.940;2023-02-28T19:11:55;25.20;;;10.50;;
57899;SDS011;60605;53.716;19.940;2023-02-28T19:16:59;43.30;;;20.20;;
57899;SDS011;60605;53.716;19.940;2023-02-28T19:22:03;40.40;;;18.40;;
57899;SDS011;60605;53.716;19.940;2023-02-28T19:32:11;73.50;;;30.00;;
57899;SDS011;60605;53.716;19.940;2023-02-28T19:37:15;69.70;;;32.20;;
57899;SDS011;60605;53.716;19.940;2023-02-28T19:42:20;68.90;;;29.10;;
57899;SDS011;60605;53.716;19.940;2023-02-28T19:47:24;49.60;;;21.20;;
57899;SDS011;60605;53.716;19.940;2023-02-28T19:52:29;43.20;;;19.90;;
57899;SDS011;60605;53.716;19.940;2023-02-28T19:57:32;44.20;;;19.50;;
57899;SDS011;60605;53.716;19.940;2023-02-28T20:02:37;33.70;;;18.20;;
57899;SDS011;60605;53.716;19.940;2023-02-28T20:07:41;37.00;;;17.90;;
57899;SDS011;60605;53.716;19.940;2023-02-28T20:12:45;36.70;;;16.20;;
57899;SDS011;60605;53.716;19.940;2023-02-28T20:17:50;38.80;;;16.80;;
57899;SDS011;60605;53.716;19.940;2023-02-28T20:22:55;38.30;;;18.40;;
57899;SDS011;60605;53.716;19.940;2023-02-28T20:27:59;40.70;;;18.40;;
57899;SDS011;60605;53.716;19.940;2023-02-28T20:33:03;36.10;;;18.20;;
57899;SDS011;60605;53.716;19.940;2023-02-28T20:38:07;31.80;;;16.50;;
57899;SDS011;60605;53.716;19.940;2023-02-28T20:43:11;40.50;;;18.20;;
57899;SDS011;60605;53.716;19.940;2023-02-28T20:48:15;36.30;;;16.30;;
57899;SDS011;60605;53.716;19.940;2023-02-28T20:53:19;39.50;;;15.60;;
57899;SDS011;60605;53.716;19.940;2023-02-28T20:58:23;36.10;;;15.20;;
57899;SDS011;60605;53.716;19.940;2023-02-28T21:03:30;34.90;;;17.00;;
57899;SDS011;60605;53.716;19.940;2023-02-28T21:08:34;40.70;;;17.50;;
57899;SDS011;60605;53.716;19.940;2023-02-28T21:13:40;1165.90;;;277.70;;
57899;SDS011;60605;53.716;19.940;2023-02-28T21:18:45;677.00;;;163.30;;
57899;SDS011;60605;53.716;19.940;2023-02-28T21:23:49;1999.90;;;723.40;;
57899;SDS011;60605;53.716;19.940;2023-02-28T21:28:55;882.50;;;319.00;;
57899;SDS011;60605;53.716;19.940;2023-02-28T21:34:00;535.90;;;152.20;;
57899;SDS011;60605;53.716;19.940;2023-02-28T21:39:07;67.50;;;28.60;;
57899;SDS011;60605;53.716;19.940;2023-02-28T21:44:14;386.50;;;94.80;;
57899;SDS011;60605;53.716;19.940;2023-02-28T21:49:21;1750.50;;;542.40;;
57899;SDS011;60605;53.716;19.940;2023-02-28T21:54:25;1020.70;;;330.70;;
57899;SDS011;60605;53.716;19.940;2023-02-28T22:04:32;121.70;;;45.10;;
57899;SDS011;60605;53.716;19.940;2023-02-28T22:09:35;88.40;;;28.80;;
57899;SDS011;60605;53.716;19.940;2023-02-28T22:14:39;40.60;;;19.00;;
57899;SDS011;60605;53.716;19.940;2023-02-28T22:24:45;41.00;;;19.50;;
57899;SDS011;60605;53.716;19.940;2023-02-28T22:29:49;125.50;;;42.00;;
57899;SDS011;60605;53.716;19.940;2023-02-28T22:34:52;125.20;;;37.50;;
57899;SDS011;60605;53.716;19.940;2023-02-28T22:44:58;176.50;;;45.20;;
57899;SDS011;60605;53.716;19.940;2023-02-28T22:50:02;215.70;;;73.60;;
57899;SDS011;60605;53.716;19.940;2023-02-28T22:55:07;214.60;;;69.30;;
57899;SDS011;60605;53.716;19.940;2023-02-28T23:00:11;280.80;;;76.90;;
57899;SDS011;60605;53.716;19.940;2023-02-28T23:05:19;179.10;;;48.90;;
57899;SDS011;60605;53.716;19.940;2023-02-28T23:15:26;66.20;;;21.00;;
57899;SDS011;60605;53.716;19.940;2023-02-28T23:25:32;46.60;;;19.40;;
57899;SDS011;60605;53.716;19.940;2023-02-28T23:30:36;30.80;;;14.40;;
57899;SDS011;60605;53.716;19.940;2023-02-28T23:35:40;57.90;;;19.90;;
57899;SDS011;60605;53.716;19.940;2023-02-28T23:40:44;49.60;;;18.20;;
57899;SDS011;60605;53.716;19.940;2023-02-28T23:45:53;45.60;;;16.20;;
57899;SDS011;60605;53.716;19.940;2023-02-28T23:51:01;35.20;;;15.60;;
57899;SDS011;60605;53.716;19.940;2023-02-28T23:56:10;29.80;;;15.30;;
